Time;durP1;ratioP1;P1;durP2;ratioP2;P2;SDS_P1;SDS_P2;PMS_P1;PMS_P2;Temp;Humidity;BMP_temperature;BMP_pressure;BME280_temperature;BME280_humidity;BME280_pressure;Samples;Min_cycle;Max_cycle;Signal;HPM_P1;HPM_P2
2023/01/30 00:01:43;;;;;;;;;59.25;46.75;;;;;4.81;62.27;101726.63;5025163;28;45511;-69
2023/01/30 00:04:11;;;;;;;;;23.25;22.00;;;;;4.84;62.04;101733.75;5016064;28;45341;-70
2023/01/30 00:06:38;;;;;;;;;20.50;19.75;;;;;4.62;61.34;101684.72;5020344;28;45521;-70
2023/01/30 00:09:04;;;;;;;;;15.50;14.75;;;;;4.88;61.06;101720.22;5022579;28;46060;-70
2023/01/30 00:11:32;;;;;;;;;17.75;16.75;;;;;4.88;60.31;101728.00;5021551;28;45502;-70
2023/01/30 00:13:58;;;;;;;;;32.50;30.00;;;;;4.88;60.53;101730.59;5023530;28;45532;-70
2023/01/30 00:16:24;;;;;;;;;19.50;18.25;;;;;4.90;60.56;101726.41;5022427;28;45524;-70
2023/01/30 00:18:50;;;;;;;;;34.75;32.00;;;;;4.89;60.49;101734.97;5015247;28;46324;-69
2023/01/30 00:21:16;;;;;;;;;13.00;11.00;;;;;4.85;61.30;101731.25;5021961;28;45497;-69
2023/01/30 00:23:42;;;;;;;;;21.50;18.00;;;;;4.84;61.58;101729.47;5024800;28;45546;-70
2023/01/30 00:26:10;;;;;;;;;47.00;41.25;;;;;4.89;59.66;101727.19;5024411;28;45483;-72
2023/01/30 00:28:36;;;;;;;;;30.00;26.25;;;;;4.90;59.17;101722.13;5023876;28;45519;-70
2023/01/30 00:31:01;;;;;;;;;33.50;30.50;;;;;4.92;58.53;101720.56;5022508;28;45603;-74
2023/01/30 00:33:27;;;;;;;;;35.75;30.75;;;;;4.66;59.33;101673.78;5025734;28;45364;-72
2023/01/30 00:35:55;;;;;;;;;31.75;27.25;;;;;4.96;58.59;101717.38;5023120;28;45794;-70
2023/01/30 00:38:22;;;;;;;;;48.75;41.25;;;;;4.97;59.24;101728.63;5014530;28;45514;-71
2023/01/30 00:40:48;;;;;;;;;34.25;27.75;;;;;4.97;58.97;101732.16;5023218;28;45833;-70
2023/01/30 00:48:46;;;;;;;;;36.75;34.25;;;;;4.98;59.33;101731.34;5019784;28;45466;-71
2023/01/30 00:51:12;;;;;;;;;32.75;29.75;;;;;4.98;59.11;101723.56;5021342;28;45474;-71
2023/01/30 00:53:37;;;;;;;;;21.50;18.50;;;;;4.82;59.59;101699.09;5016265;28;45456;-72
2023/01/30 00:56:03;;;;;;;;;36.00;30.75;;;;;4.98;60.04;101728.75;5014498;28;45764;-71
2023/01/30 00:58:29;;;;;;;;;32.75;28.75;;;;;4.98;60.12;101733.94;5023430;28;46217;-74
2023/01/30 01:00:55;;;;;;;;;35.50;33.25;;;;;5.00;59.54;101728.88;5021691;28;45466;-71
2023/01/30 01:03:21;;;;;;;;;33.00;27.50;;;;;4.97;60.37;101737.31;5025973;28;45508;-70
2023/01/30 01:05:47;;;;;;;;;27.00;26.25;;;;;4.99;60.12;101745.19;5024755;28;45452;-71
2023/01/30 01:08:13;;;;;;;;;14.00;13.75;;;;;5.00;60.14;101739.22;5015436;28;45413;-70
2023/01/30 01:10:39;;;;;;;;;20.25;19.25;;;;;5.01;60.01;101737.53;5019496;28;45245;-72
2023/01/30 01:13:09;;;;;;;;;24.75;22.75;;;;;4.97;60.52;101736.41;5015201;28;45481;-72
2023/01/30 01:15:35;;;;;;;;;11.75;9.00;;;;;4.69;61.70;101694.69;5021915;28;45415;-74
2023/01/30 01:18:01;;;;;;;;;10.00;9.25;;;;;4.91;62.23;101736.84;5008754;28;45537;-74
2023/01/30 01:20:26;;;;;;;;;11.75;10.50;;;;;4.89;63.13;101741.03;5036124;28;45392;-69
2023/01/30 01:22:54;;;;;;;;;13.25;10.00;;;;;4.73;62.48;101715.72;5026860;28;45449;-71
2023/01/30 01:25:20;;;;;;;;;11.25;10.25;;;;;4.88;62.17;101738.34;5020173;28;45455;-70
2023/01/30 01:27:46;;;;;;;;;10.00;9.25;;;;;4.88;62.62;101738.34;5020135;28;45306;-70
2023/01/30 01:30:12;;;;;;;;;10.75;10.00;;;;;4.88;63.03;101748.72;5021950;28;45422;-72
2023/01/30 01:32:38;;;;;;;;;13.25;10.75;;;;;4.64;64.45;101709.00;5022128;28;45787;-70
2023/01/30 01:35:04;;;;;;;;;9.00;7.50;;;;;4.69;64.27;101734.41;5024731;28;45442;-71
2023/01/30 01:37:30;;;;;;;;;14.25;10.25;;;;;4.75;64.63;101744.31;5021454;28;46280;-70
2023/01/30 01:42:40;;;;;;;;;12.00;10.00;;;;;4.80;64.99;101755.91;5022764;28;45519;-71
2023/01/30 01:45:11;;;;;;;;;13.50;11.00;;;;;4.81;64.68;101756.81;5029117;28;45478;-71
2023/01/30 01:47:57;;;;;;;;;9.50;9.00;;;;;4.81;64.69;101755.13;5030874;28;45492;-70
2023/01/30 01:50:41;;;;;;;;;13.75;11.00;;;;;4.76;64.40;101753.91;5014604;28;45431;-70
2023/01/30 01:53:10;;;;;;;;;12.25;10.00;;;;;4.80;64.45;101758.50;5032690;28;45484;-71
2023/01/30 01:55:37;;;;;;;;;9.50;9.50;;;;;4.81;63.79;101760.28;5031173;28;45374;-71
2023/01/30 01:58:10;;;;;;;;;10.00;8.50;;;;;4.59;62.46;101716.41;5032538;28;45611;-70
2023/01/30 02:00:35;;;;;;;;;12.75;8.50;;;;;4.76;63.33;101751.31;5032166;28;45503;-72
2023/01/30 02:03:06;;;;;;;;;10.75;10.00;;;;;4.77;65.36;101758.28;5033106;28;45475;-71
2023/01/30 02:05:36;;;;;;;;;11.00;10.00;;;;;4.71;65.13;101750.97;5029400;28;45582;-70
2023/01/30 02:08:13;;;;;;;;;13.75;10.75;;;;;4.76;65.58;101751.31;5012913;28;45500;-70
2023/01/30 02:10:49;;;;;;;;;9.75;9.75;;;;;4.77;64.86;101745.31;5035272;28;45422;-71
2023/01/30 02:13:15;;;;;;;;;9.00;8.50;;;;;4.74;65.33;101748.59;5035065;28;45623;-71
2023/01/30 02:15:42;;;;;;;;;10.00;9.25;;;;;4.73;63.71;101740.72;5031663;28;45492;-71
2023/01/30 02:18:07;;;;;;;;;9.00;9.00;;;;;4.77;62.42;101730.72;5029463;28;46232;-74
2023/01/30 02:20:48;;;;;;;;;6.50;6.00;;;;;4.82;61.92;101731.03;5031934;28;45524;-72
2023/01/30 02:23:55;;;;;;;;;6.00;6.00;;;;;4.84;62.03;101725.97;5029901;28;45483;-71
2023/01/30 02:26:51;;;;;;;;;7.25;5.75;;;;;4.86;60.89;101720.13;5032559;28;46118;-71
2023/01/30 02:29:30;;;;;;;;;8.50;7.00;;;;;4.84;60.75;101713.94;5016142;28;46617;-71
2023/01/30 02:32:01;;;;;;;;;5.50;5.50;;;;;4.82;60.75;101720.69;5035198;28;45483;-69
2023/01/30 02:34:56;;;;;;;;;7.50;7.00;;;;;4.81;60.81;101716.28;5033894;28;45254;-69
2023/01/30 02:37:36;;;;;;;;;8.50;5.75;;;;;4.81;60.13;101717.97;5033383;28;45551;-71
2023/01/30 02:40:22;;;;;;;;;6.50;6.00;;;;;4.81;60.90;101707.63;5014460;28;46817;-71
2023/01/30 02:43:12;;;;;;;;;7.75;5.75;;;;;4.81;60.17;101697.28;5031576;28;45607;-70
2023/01/30 02:46:01;;;;;;;;;9.25;7.00;;;;;4.81;59.93;101690.38;5033411;28;45393;-70
2023/01/30 02:48:36;;;;;;;;;6.25;5.00;;;;;4.81;60.14;101684.31;5033021;28;45488;-72
2023/01/30 02:51:06;;;;;;;;;6.00;5.00;;;;;4.62;60.24;101662.31;5031962;28;46179;-71
2023/01/30 02:53:33;;;;;;;;;7.50;5.50;;;;;4.61;59.75;101672.53;5015776;28;45321;-71
2023/01/30 02:55:59;;;;;;;;;6.75;6.00;;;;;4.73;59.67;101681.19;5034533;28;45510;-72
2023/01/30 02:58:30;;;;;;;;;10.00;7.00;;;;;4.69;59.72;101684.34;5037764;28;45485;-71
2023/01/30 03:01:06;;;;;;;;;10.25;7.00;;;;;4.71;59.64;101685.34;5037793;28;45542;-70
2023/01/30 03:04:09;;;;;;;;;5.25;5.00;;;;;4.49;59.83;101657.03;5017172;28;46081;-71
2023/01/30 03:07:15;;;;;;;;;9.00;6.75;;;;;4.66;60.12;101689.31;5036455;28;45524;-70
2023/01/30 03:10:01;;;;;;;;;5.00;3.50;;;;;4.68;60.21;101687.75;5035211;28;45503;-71
2023/01/30 03:12:49;;;;;;;;;6.25;6.25;;;;;4.67;60.10;101689.41;5036575;28;45372;-69
2023/01/30 03:15:32;;;;;;;;;10.00;9.00;;;;;4.61;60.05;101676.03;5037595;28;45486;-70
2023/01/30 03:17:58;;;;;;;;;9.75;6.50;;;;;4.65;59.95;101688.38;5037724;28;45402;-71
2023/01/30 03:20:24;;;;;;;;;9.00;9.00;;;;;4.35;60.02;101633.63;5037624;28;45522;-71
2023/01/30 03:22:50;;;;;;;;;11.25;9.75;;;;;4.66;60.27;101687.63;5037818;28;45510;-70
2023/01/30 03:25:21;;;;;;;;;11.75;9.75;;;;;4.67;60.40;101691.09;5038028;28;45352;-70
2023/01/30 03:27:49;;;;;;;;;9.00;9.00;;;;;4.65;60.60;101700.44;5035957;28;45442;-71
2023/01/30 03:30:14;;;;;;;;;7.50;7.00;;;;;4.62;60.28;101703.72;5038807;28;45332;-70
2023/01/30 03:32:40;;;;;;;;;10.75;10.00;;;;;4.39;60.51;101666.69;5038050;28;45480;-71
2023/01/30 03:35:06;;;;;;;;;14.00;10.75;;;;;4.66;61.35;101720.38;5038366;28;45415;-72
2023/01/30 03:37:31;;;;;;;;;12.00;9.00;;;;;4.56;63.11;101727.47;5036894;28;45858;-72
2023/01/30 03:39:58;;;;;;;;;7.00;7.00;;;;;4.32;63.03;101700.69;5037631;28;45582;-70
2023/01/30 03:42:23;;;;;;;;;10.25;9.25;;;;;4.48;63.62;101738.94;5037282;28;45525;-71
2023/01/30 03:44:49;;;;;;;;;9.00;7.25;;;;;4.47;63.78;101747.47;5037263;28;45482;-71
2023/01/30 03:47:14;;;;;;;;;9.75;8.50;;;;;4.44;64.11;101748.97;5036940;28;45881;-70
2023/01/30 03:49:40;;;;;;;;;10.00;7.75;;;;;4.41;64.13;101746.13;5037595;28;45561;-70
2023/01/30 03:52:05;;;;;;;;;11.25;9.50;;;;;4.36;63.93;101744.09;5038776;28;45346;-71
2023/01/30 03:54:31;;;;;;;;;27.75;22.75;;;;;4.38;63.88;101752.88;5038630;28;45309;-71
2023/01/30 03:56:56;;;;;;;;;40.75;31.75;;;;;4.41;64.11;101749.63;5026289;28;45368;-71
2023/01/30 03:59:22;;;;;;;;;36.50;31.00;;;;;4.45;64.36;101741.28;5027054;28;45570;-71
2023/01/30 04:01:47;;;;;;;;;16.00;13.50;;;;;4.49;63.45;101748.47;5039657;28;45431;-71
2023/01/30 04:04:13;;;;;;;;;11.50;9.25;;;;;4.30;63.45;101711.72;5039336;28;45446;-72
2023/01/30 04:06:38;;;;;;;;;10.75;9.25;;;;;4.51;63.27;101757.25;5039196;28;45359;-70
2023/01/30 04:09:04;;;;;;;;;10.50;9.00;;;;;4.51;63.28;101761.53;5038574;28;45462;-71
2023/01/30 04:11:29;;;;;;;;;11.25;9.00;;;;;4.51;63.70;101757.25;5038305;28;45718;-71
2023/01/30 04:13:55;;;;;;;;;13.00;10.75;;;;;4.55;62.76;101751.53;5038486;28;45406;-72
2023/01/30 04:16:23;;;;;;;;;11.25;7.25;;;;;4.37;62.02;101721.72;5038206;28;45348;-71
2023/01/30 04:18:48;;;;;;;;;8.50;6.75;;;;;4.62;62.16;101763.25;5038983;28;45610;-71
2023/01/30 04:21:14;;;;;;;;;6.00;6.00;;;;;4.56;61.65;101753.34;5038865;28;45506;-71
2023/01/30 04:23:40;;;;;;;;;9.75;7.50;;;;;4.47;61.88;101744.00;5039044;28;45574;-71
2023/01/30 04:26:06;;;;;;;;;13.25;10.00;;;;;4.62;61.82;101780.47;5037448;28;45830;-71
2023/01/30 04:28:32;;;;;;;;;11.00;9.75;;;;;4.38;61.33;101736.47;5039054;28;45320;-71
2023/01/30 04:30:58;;;;;;;;;9.00;8.50;;;;;4.63;61.57;101784.84;5037960;28;46145;-71
2023/01/30 04:33:24;;;;;;;;;10.00;9.00;;;;;4.64;61.44;101794.41;5037867;28;45720;-71
2023/01/30 04:36:00;;;;;;;;;13.00;9.25;;;;;4.65;61.85;101783.28;5038552;28;45356;-71
2023/01/30 04:38:27;;;;;;;;;7.75;6.50;;;;;4.68;61.54;101781.81;5005779;28;45535;-72
2023/01/30 04:40:54;;;;;;;;;9.00;7.00;;;;;4.72;61.15;101770.00;5037305;28;45405;-72
2023/01/30 04:43:21;;;;;;;;;9.00;8.00;;;;;4.68;60.82;101762.81;5038206;28;45506;-70
2023/01/30 04:45:50;;;;;;;;;10.75;9.75;;;;;4.74;61.07;101776.19;5037206;28;45496;-74
2023/01/30 04:48:17;;;;;;;;;11.00;9.25;;;;;4.74;61.09;101773.59;5037822;28;45449;-72
2023/01/30 04:50:46;;;;;;;;;9.75;8.00;;;;;4.75;60.96;101770.22;5037961;28;46155;-71
2023/01/30 04:53:12;;;;;;;;;8.50;7.00;;;;;4.76;60.90;101766.84;5023008;28;45440;-74
2023/01/30 04:55:38;;;;;;;;;6.00;5.75;;;;;4.79;60.64;101772.22;5037579;28;45321;-74
2023/01/30 04:58:03;;;;;;;;;9.00;8.00;;;;;4.81;60.22;101783.59;5037534;28;45435;-71
2023/01/30 05:00:29;;;;;;;;;11.00;9.00;;;;;4.56;60.24;101734.34;5037773;28;46199;-71
2023/01/30 05:02:55;;;;;;;;;8.25;7.50;;;;;4.83;59.81;101766.47;5037590;28;45335;-71
2023/01/30 05:05:22;;;;;;;;;12.25;9.75;;;;;4.85;59.84;101767.50;5028922;28;45498;-70
2023/01/30 05:07:48;;;;;;;;;10.75;10.50;;;;;4.85;59.39;101754.53;5031231;28;45428;-71
2023/01/30 05:10:14;;;;;;;;;8.50;7.00;;;;;4.86;60.20;101743.41;5036586;28;46177;-72
2023/01/30 05:12:40;;;;;;;;;8.00;7.00;;;;;4.86;60.21;101733.06;5037536;28;45383;-75
2023/01/30 05:15:06;;;;;;;;;9.50;6.75;;;;;4.58;60.32;101694.81;5037460;28;45350;-74
2023/01/30 05:17:33;;;;;;;;;6.00;5.75;;;;;4.83;59.96;101740.59;5037625;28;45205;-74
2023/01/30 05:19:59;;;;;;;;;10.50;8.00;;;;;4.76;59.99;101734.09;5035381;28;45308;-73
2023/01/30 05:22:24;;;;;;;;;5.50;5.50;;;;;4.80;59.74;101747.25;5036956;28;45544;-71
2023/01/30 05:24:50;;;;;;;;;6.50;6.25;;;;;4.80;59.40;101744.69;5037505;28;45311;-71
2023/01/30 05:27:15;;;;;;;;;6.75;6.25;;;;;4.76;60.10;101741.84;5037292;28;45359;-72
2023/01/30 05:29:41;;;;;;;;;7.50;7.50;;;;;4.75;59.70;101742.63;5035620;28;45735;-71
2023/01/30 05:32:06;;;;;;;;;8.50;6.25;;;;;4.76;59.74;101738.38;5021767;28;45553;-73
2023/01/30 05:34:32;;;;;;;;;8.50;7.00;;;;;4.78;60.24;101736.78;5037393;28;45585;-72
2023/01/30 05:36:57;;;;;;;;;6.75;5.75;;;;;4.77;60.08;101735.91;5037816;28;45369;-73
2023/01/30 05:39:23;;;;;;;;;8.00;5.50;;;;;4.75;60.24;101731.38;5036963;28;45543;-72
2023/01/30 05:41:49;;;;;;;;;10.50;9.50;;;;;4.71;60.09;101721.59;5036702;28;45772;-72
2023/01/30 05:44:14;;;;;;;;;10.00;9.50;;;;;4.64;60.53;101714.19;5037133;28;45458;-75
2023/01/30 05:46:40;;;;;;;;;6.75;6.25;;;;;4.80;60.16;101736.91;5025943;28;45181;-74
2023/01/30 05:49:06;;;;;;;;;11.25;9.25;;;;;4.80;60.94;101742.97;5032630;28;45357;-75
2023/01/30 05:51:32;;;;;;;;;20.25;19.00;;;;;4.78;61.14;101734.19;5034845;28;45421;-74
2023/01/30 05:53:58;;;;;;;;;16.25;14.00;;;;;4.80;61.19;101739.50;5036405;28;45582;-74
2023/01/30 05:56:23;;;;;;;;;11.00;8.50;;;;;4.53;60.96;101688.41;5020320;28;45701;-75
2023/01/30 05:58:53;;;;;;;;;9.75;9.00;;;;;4.78;60.89;101724.72;5037748;28;45991;-74
2023/01/30 06:01:19;;;;;;;;;7.00;7.00;;;;;4.80;60.81;101717.09;5035629;28;45508;-72
2023/01/30 06:03:45;;;;;;;;;11.50;10.00;;;;;4.78;61.14;101716.97;5035259;28;45574;-73
2023/01/30 06:06:11;;;;;;;;;18.00;13.75;;;;;4.56;62.22;101692.94;5036592;28;45587;-72
2023/01/30 06:08:37;;;;;;;;;14.75;10.25;;;;;4.74;61.64;101721.81;5036289;28;46166;-72
2023/01/30 06:11:06;;;;;;;;;11.50;9.00;;;;;4.69;61.95;101705.94;5035686;28;45403;-72
2023/01/30 06:13:33;;;;;;;;;9.25;6.25;;;;;4.71;61.65;101711.22;5035615;28;45642;-72
2023/01/30 06:15:59;;;;;;;;;11.00;9.75;;;;;4.69;62.00;101711.13;5036464;28;45475;-70
2023/01/30 06:18:24;;;;;;;;;6.25;6.25;;;;;4.44;61.09;101672.22;5036483;28;45439;-71
2023/01/30 06:20:51;;;;;;;;;6.25;5.25;;;;;4.68;61.26;101719.69;5035579;28;45646;-71
2023/01/30 06:23:17;;;;;;;;;10.75;9.00;;;;;4.64;61.36;101703.84;5036510;28;45330;-71
2023/01/30 06:25:47;;;;;;;;;10.25;8.50;;;;;4.68;61.07;101719.69;5036488;28;45611;-71
2023/01/30 06:28:17;;;;;;;;;11.00;11.00;;;;;4.46;62.12;101693.94;5034598;28;45535;-72
2023/01/30 06:30:45;;;;;;;;;98.00;85.00;;;;;4.51;63.05;101712.38;5036847;28;45196;-74
2023/01/30 06:33:11;;;;;;;;;61.00;46.75;;;;;4.50;63.54;101715.78;5043496;28;45526;-71
2023/01/30 06:35:41;;;;;;;;;21.50;19.00;;;;;4.27;63.43;101672.69;5045010;28;45480;-71
2023/01/30 06:38:13;;;;;;;;;16.25;13.00;;;;;4.49;63.32;101707.09;5040691;28;45569;-71
2023/01/30 06:40:39;;;;;;;;;15.75;12.75;;;;;4.47;63.04;101705.19;5040955;28;46028;-74
2023/01/30 06:43:05;;;;;;;;;22.50;21.50;;;;;4.48;62.50;101719.94;5044648;28;45441;-74
2023/01/30 06:45:31;;;;;;;;;22.75;21.75;;;;;4.45;62.96;101710.25;5043292;28;45623;-72
2023/01/30 06:47:56;;;;;;;;;24.00;23.25;;;;;4.49;63.66;101725.19;5043990;28;45615;-71
2023/01/30 06:50:25;;;;;;;;;48.00;39.75;;;;;4.33;63.50;101699.00;5026610;28;45542;-71
2023/01/30 06:52:52;;;;;;;;;24.00;19.25;;;;;4.27;63.49;101702.03;5044622;28;45432;-73
2023/01/30 06:55:23;;;;;;;;;13.75;12.50;;;;;4.27;63.97;101714.06;5044162;28;45407;-70
2023/01/30 06:57:49;;;;;;;;;13.50;10.75;;;;;4.34;64.16;101730.16;5042280;28;46261;-71
2023/01/30 07:00:17;;;;;;;;;11.50;10.50;;;;;4.36;63.60;101731.16;5044732;28;45423;-70
2023/01/30 07:02:43;;;;;;;;;13.00;9.75;;;;;4.37;64.11;101734.66;5041057;28;45658;-70
2023/01/30 07:05:09;;;;;;;;;12.00;12.00;;;;;4.41;64.05;101735.78;5039033;28;45840;-70
2023/01/30 07:07:37;;;;;;;;;16.75;14.75;;;;;4.41;64.49;101739.25;5043843;28;45478;-70
2023/01/30 07:10:06;;;;;;;;;17.00;14.25;;;;;4.41;64.74;101749.63;5043215;28;45462;-71
2023/01/30 07:12:31;;;;;;;;;38.25;29.25;;;;;4.25;64.42;101726.00;5044365;28;45568;-71
2023/01/30 07:14:57;;;;;;;;;17.25;13.75;;;;;4.34;63.58;101737.91;5043918;28;45462;-71
2023/01/30 07:17:23;;;;;;;;;16.50;15.00;;;;;4.31;64.06;101741.97;5035859;28;46187;-71
2023/01/30 07:19:49;;;;;;;;;13.25;11.25;;;;;4.41;63.91;101772.00;5035915;28;45678;-74
2023/01/30 07:22:15;;;;;;;;;15.25;13.00;;;;;4.33;64.30;101755.91;5035290;28;45432;-72
2023/01/30 07:24:44;;;;;;;;;25.75;23.25;;;;;4.37;63.54;101763.09;5037995;28;46170;-71
2023/01/30 07:27:11;;;;;;;;;64.00;52.75;;;;;4.36;63.44;101761.31;5035413;28;45558;-70
2023/01/30 07:29:38;;;;;;;;;33.75;33.00;;;;;4.29;63.87;101759.06;5038066;28;45323;-71
2023/01/30 07:32:09;;;;;;;;;23.25;21.75;;;;;4.18;63.35;101754.00;5045371;28;46041;-71
2023/01/30 07:34:34;;;;;;;;;12.75;11.25;;;;;3.93;63.54;101733.13;5035878;28;45328;-72
2023/01/30 07:37:00;;;;;;;;;13.00;11.25;;;;;4.00;63.12;101765.53;5035440;28;46164;-71
2023/01/30 07:39:25;;;;;;;;;13.00;11.50;;;;;3.97;63.11;101775.63;5035114;28;45473;-71
2023/01/30 07:41:53;;;;;;;;;13.00;12.75;;;;;4.00;62.61;101775.88;5035660;28;45484;-72
2023/01/30 07:44:19;;;;;;;;;17.00;13.75;;;;;4.00;62.86;101781.06;5041007;28;45377;-71
2023/01/30 07:46:44;;;;;;;;;16.00;12.00;;;;;3.96;63.12;101777.31;5047523;28;46047;-71
2023/01/30 07:49:10;;;;;;;;;12.75;11.50;;;;;4.07;63.89;101790.16;5044520;28;45546;-73
2023/01/30 07:51:35;;;;;;;;;15.00;13.00;;;;;4.10;63.96;101793.88;5047345;28;45546;-70
2023/01/30 07:54:02;;;;;;;;;14.00;12.50;;;;;4.12;64.97;101792.31;5046927;28;45550;-70
2023/01/30 07:56:31;;;;;;;;;13.25;12.75;;;;;4.22;64.84;101803.34;5020612;28;45437;-71
2023/01/30 07:58:59;;;;;;;;;11.50;10.25;;;;;4.24;65.05;101807.88;5044604;28;45419;-71
2023/01/30 08:01:24;;;;;;;;;15.25;12.00;;;;;4.26;65.04;101811.47;5037444;28;45653;-72
2023/01/30 08:03:50;;;;;;;;;18.00;16.00;;;;;4.30;64.51;101812.59;5038603;28;45818;-71
2023/01/30 08:06:16;;;;;;;;;13.50;11.25;;;;;4.27;64.52;101808.09;5029280;28;46089;-71
2023/01/30 08:08:41;;;;;;;;;14.25;13.00;;;;;4.41;64.55;101819.47;5043562;28;45441;-72
2023/01/30 08:11:08;;;;;;;;;13.00;11.50;;;;;4.39;64.03;101797.75;5038790;28;45392;-71
2023/01/30 08:13:34;;;;;;;;;11.25;11.25;;;;;4.29;64.43;101764.22;5034928;28;45503;-72
2023/01/30 08:16:05;;;;;;;;;10.00;9.25;;;;;4.65;64.49;101814.31;5033554;28;45285;-71
2023/01/30 08:18:34;;;;;;;;;22.25;21.50;;;;;4.69;64.35;101814.66;5022355;28;45455;-71
2023/01/30 08:21:02;;;;;;;;;23.25;21.25;;;;;4.56;63.81;101792.16;5037777;28;45490;-71
2023/01/30 08:23:28;;;;;;;;;27.25;26.25;;;;;4.86;64.01;101831.44;5018316;28;45475;-71
2023/01/30 08:25:58;;;;;;;;;19.00;17.25;;;;;4.91;63.62;101831.78;5033292;28;46156;-71
2023/01/30 08:28:25;;;;;;;;;14.00;11.00;;;;;4.95;63.94;101833.78;5032029;28;45625;-72
2023/01/30 08:30:53;;;;;;;;;10.25;10.00;;;;;4.84;63.95;101817.50;5037429;28;45525;-71
2023/01/30 08:33:20;;;;;;;;;19.00;16.50;;;;;4.65;63.79;101775.50;5037340;28;45424;-68
2023/01/30 08:35:46;;;;;;;;;16.25;13.25;;;;;5.17;64.08;101844.94;5037429;28;46105;-68
2023/01/30 08:38:11;;;;;;;;;28.75;28.00;;;;;5.30;63.66;101854.50;5035143;28;45749;-69
2023/01/30 08:40:37;;;;;;;;;26.25;25.00;;;;;5.43;63.21;101860.56;5036681;28;45436;-68
2023/01/30 08:43:03;;;;;;;;;22.50;20.50;;;;;5.53;62.57;101863.94;5037354;28;45463;-68
2023/01/30 08:45:30;;;;;;;;;23.75;23.25;;;;;5.53;62.12;101873.38;5036656;28;46186;-71
2023/01/30 08:47:59;;;;;;;;;23.75;20.00;;;;;5.56;61.95;101871.91;5036799;28;45609;-71
2023/01/30 08:50:25;;;;;;;;;33.75;26.00;;;;;5.44;62.21;101858.09;5018368;28;45324;-71
2023/01/30 08:52:54;;;;;;;;;31.00;27.75;;;;;5.49;62.55;101838.59;5036773;28;45878;-71
2023/01/30 08:55:20;;;;;;;;;26.25;23.50;;;;;6.01;61.80;101885.47;5018926;28;45684;-71
2023/01/30 08:57:46;;;;;;;;;43.00;36.50;;;;;6.11;61.19;101884.41;5036363;28;45494;-71
2023/01/30 09:00:12;;;;;;;;;54.00;40.50;;;;;6.15;61.33;101889.91;5051325;28;45623;-70
2023/01/30 09:02:38;;;;;;;;;76.25;51.25;;;;;6.16;60.88;101881.31;5036176;28;45535;-70
2023/01/30 09:05:07;;;;;;;;;33.50;25.00;;;;;6.32;59.76;101888.47;5037370;28;46180;-70
2023/01/30 09:07:33;;;;;;;;;19.00;13.25;;;;;6.43;60.66;101885.72;5039231;28;45509;-70
2023/01/30 09:09:58;;;;;;;;;58.25;46.25;;;;;6.68;59.30;101886.56;5043764;28;45506;-70
2023/01/30 09:12:24;;;;;;;;;26.25;24.25;;;;;6.84;58.55;101885.91;5038044;28;45461;-71
2023/01/30 09:14:52;;;;;;;;;25.25;24.50;;;;;6.97;58.84;101885.91;5032293;28;46981;-71
2023/01/30 09:17:18;;;;;;;;;33.25;30.00;;;;;7.16;59.08;101885.44;5043113;28;45667;-71
2023/01/30 09:19:44;;;;;;;;;29.50;26.00;;;;;7.37;58.46;101896.31;5043106;28;45503;-72
2023/01/30 09:22:09;;;;;;;;;30.50;27.00;;;;;7.51;58.08;101885.91;5043969;28;45441;-71
2023/01/30 09:24:35;;;;;;;;;34.75;30.25;;;;;7.63;57.32;101891.88;5045185;28;45812;-71
2023/01/30 09:27:03;;;;;;;;;21.50;17.50;;;;;7.50;56.69;101865.88;5026581;28;45429;-71
2023/01/30 09:29:28;;;;;;;;;23.00;21.75;;;;;7.61;56.17;101877.88;5051870;28;45407;-71
2023/01/30 09:31:58;;;;;;;;;18.00;17.00;;;;;7.74;56.53;101872.66;5036325;28;45571;-72
2023/01/30 09:34:27;;;;;;;;;19.50;18.25;;;;;8.09;55.10;101906.88;5036004;28;46025;-70
2023/01/30 09:37:00;;;;;;;;;20.00;19.00;;;;;8.02;55.29;101915.09;5035148;28;45481;-71
2023/01/30 09:39:27;;;;;;;;;21.25;18.00;;;;;8.09;55.10;101912.97;5031767;28;45556;-74
2023/01/30 09:42:04;;;;;;;;;31.75;29.75;;;;;8.22;55.36;101913.75;5036075;28;45943;-71
2023/01/30 09:45:24;;;;;;;;;23.25;21.75;;;;;8.54;55.22;101910.53;5034753;28;45500;-72
2023/01/30 09:48:02;;;;;;;;;23.00;20.00;;;;;8.69;54.10;101913.13;5037033;28;45489;-71
2023/01/30 09:50:33;;;;;;;;;32.00;30.75;;;;;8.86;53.26;101907.22;5034697;28;45371;-71
2023/01/30 09:52:58;;;;;;;;;58.50;46.50;;;;;8.98;52.76;101904.41;5035083;28;45495;-70
2023/01/30 09:55:28;;;;;;;;;29.25;26.50;;;;;9.06;51.86;101899.66;5035697;28;45336;-69
2023/01/30 09:57:56;;;;;;;;;45.00;35.00;;;;;9.24;52.80;101897.22;5016451;28;45505;-69
2023/01/30 10:00:35;;;;;;;;;28.50;23.75;;;;;9.36;51.36;101897.91;5031161;28;45601;-71
2023/01/30 10:03:15;;;;;;;;;38.25;34.75;;;;;9.52;51.60;101887.50;5035649;28;45342;-71
2023/01/30 10:05:46;;;;;;;;;17.00;15.25;;;;;9.77;51.85;101883.66;5033918;28;45422;-71
2023/01/30 10:08:17;;;;;;;;;20.00;18.75;;;;;10.38;51.26;101882.53;5034169;28;45668;-72
2023/01/30 10:11:02;;;;;;;;;23.50;22.00;;;;;10.42;48.75;101888.00;5035566;28;45501;-71
2023/01/30 10:13:40;;;;;;;;;19.75;15.25;;;;;10.61;50.75;101891.59;5033169;28;45581;-71
2023/01/30 10:16:26;;;;;;;;;11.00;11.00;;;;;11.19;49.78;101884.03;5035587;28;46098;-71
2023/01/30 10:18:51;;;;;;;;;11.00;10.00;;;;;11.27;45.74;101879.16;5035034;28;45535;-71
2023/01/30 10:21:36;;;;;;;;;8.25;7.50;;;;;11.04;46.91;101891.09;5035374;28;45750;-71
2023/01/30 10:24:20;;;;;;;;;12.50;11.75;;;;;11.18;46.71;101894.41;5036018;28;45465;-71
2023/01/30 10:26:47;;;;;;;;;11.75;10.75;;;;;11.32;47.46;101893.34;5030308;28;45582;-70
2023/01/30 10:29:27;;;;;;;;;11.75;10.75;;;;;11.65;47.42;101893.19;5029568;28;45672;-70
2023/01/30 10:32:02;;;;;;;;;10.50;10.00;;;;;12.03;46.13;101897.59;5034263;28;45561;-70
2023/01/30 10:34:36;;;;;;;;;24.25;23.00;;;;;12.12;43.36;101905.00;5029921;28;45546;-70
2023/01/30 10:37:28;;;;;;;;;5.50;3.50;;;;;11.86;45.02;101903.78;5033708;28;45844;-71
2023/01/30 10:39:59;;;;;;;;;13.00;11.75;;;;;11.83;45.90;101906.25;5035273;28;45428;-71
2023/01/30 10:42:45;;;;;;;;;15.75;14.00;;;;;11.76;44.26;101912.94;5033884;28;45522;-70
2023/01/30 10:45:19;;;;;;;;;13.50;12.00;;;;;11.80;45.19;101911.31;5034679;28;45522;-71
2023/01/30 10:48:03;;;;;;;;;12.00;12.00;;;;;11.54;46.65;101917.13;5034644;28;46034;-71
2023/01/30 10:50:52;;;;;;;;;14.50;13.50;;;;;11.59;46.28;101911.22;5034792;28;45429;-70
2023/01/30 10:53:33;;;;;;;;;11.50;10.75;;;;;11.68;45.47;101907.31;5035337;28;45471;-71
2023/01/30 10:56:09;;;;;;;;;14.00;13.00;;;;;11.66;44.57;101911.59;5035812;28;45361;-71
2023/01/30 10:59:09;;;;;;;;;11.50;10.50;;;;;11.45;44.25;101876.53;5035377;28;46494;-71
2023/01/30 11:02:11;;;;;;;;;10.00;8.25;;;;;11.41;43.31;101901.66;5034796;28;45498;-72
2023/01/30 11:04:51;;;;;;;;;11.50;10.75;;;;;11.48;44.48;101900.22;5035069;28;45518;-71
2023/01/30 11:07:16;;;;;;;;;10.00;9.50;;;;;11.68;45.18;101893.34;5034409;28;45575;-71
2023/01/30 11:09:45;;;;;;;;;15.75;14.00;;;;;11.62;43.59;101891.34;5034304;28;45466;-72
2023/01/30 11:12:11;;;;;;;;;11.50;10.50;;;;;11.56;45.40;101885.81;5034196;28;45811;-71
2023/01/30 11:15:10;;;;;;;;;12.50;9.25;;;;;11.55;45.74;101876.16;5034675;28;45522;-72
2023/01/30 11:17:40;;;;;;;;;12.50;11.00;;;;;11.70;44.65;101889.06;4991415;28;45567;-72
2023/01/30 11:20:23;;;;;;;;;9.25;9.25;;;;;11.79;45.24;101886.88;5037862;28;45467;-72
2023/01/30 11:22:59;;;;;;;;;11.00;9.25;;;;;11.57;44.22;101834.34;5037108;28;45520;-71
2023/01/30 11:25:25;;;;;;;;;11.00;9.50;;;;;12.08;44.96;101885.63;5037992;28;45502;-72
2023/01/30 11:27:54;;;;;;;;;8.00;7.50;;;;;12.15;44.78;101886.78;5037814;28;45598;-71
2023/01/30 11:30:26;;;;;;;;;11.25;9.00;;;;;12.30;42.71;101870.88;5038467;28;46444;-71
2023/01/30 11:33:09;;;;;;;;;12.75;10.25;;;;;12.13;42.78;101868.38;5037325;28;45435;-71
2023/01/30 11:35:58;;;;;;;;;10.50;10.00;;;;;12.00;43.96;101878.25;5036289;28;45469;-71
2023/01/30 11:38:27;;;;;;;;;11.25;9.25;;;;;11.70;43.82;101876.00;5037778;28;45490;-72
2023/01/30 11:41:19;;;;;;;;;10.00;7.75;;;;;11.41;44.52;101861.53;5037788;28;45981;-72
2023/01/30 11:43:46;;;;;;;;;9.25;7.75;;;;;11.32;44.45;101875.03;5038058;28;45356;-71